Portada
METAR-TAF:

METAR-TAF

Aeropuertos :

Granada, España

Aeropuerto de Granada

latitud: 37-11N, longitud: 003-47W, altitud: 567 m

Observación

El informe se hizo hace 33 minutos, a las 04:00 UTC
Viento 1 kt con dirección variable
Temperatura 17°C
Humedad 59%
Presión 1013 hPa
Visibilidad 10 km o más
sin nubes por debajo de 1500 m y sin presencia de cumulonimbus.

METAR: LEGR 210400Z VRB01KT CAVOK 17/09 Q1013

Hora: 06:33 (04:33 UTC)

Pronóstico

El informe se hizo hace 2 horas y 33 minutos, a las 02:00 UTC
Pronóstico válido del 21 a las 03 UTC al 22 a las 03 UTC
Viento 6 kt del oeste
Visibilidad 10 km o más
sin nubes por debajo de 1500 m y sin presencia de cumulonimbus.

TAF: LEGR 210200Z 2103/2203 28006KT CAVOK TX33/2115Z TN18/2105Z

Observaciones y pronósticos meteorológicos de más de 4000 aeropuertos (mensajes METAR y TAF).

Los puntos amarillos y rojos representan las estaciones disponibles.

Ponga el ratón en el punto deseado para ver el nombre de la estación.

Haga clic para ver las observaciones y los pronósticos meteorológicos.

Para cambiar el mapa : haga clic en los botones verdes con una cruz de color negro para hacer un zoom, en el botón verde con un guión para alejar o en las flechas verdes para mapas adyacentes.


METAR-TAF: